Time;durP1;ratioP1;P1;durP2;ratioP2;P2;SDS_P1;SDS_P2;PMS_P1;PMS_P2;Temp;Humidity;BMP_temperature;BMP_pressure;BME280_temperature;BME280_humidity;BME280_pressure;Samples;Min_cycle;Max_cycle;Signal;HPM_P1;HPM_P2
2022/02/26 00:02:24;;;;;;;31.07;5.60;;;5.00;99.90;;;;;;5007366;28;20243;-63
2022/02/26 00:04:53;;;;;;;31.03;4.43;;;5.00;99.90;;;;;;5000933;28;20839;-63
2022/02/26 00:07:22;;;;;;;21.70;3.90;;;5.00;99.90;;;;;;5001791;28;20715;-64
2022/02/26 00:09:51;;;;;;;32.93;5.10;;;5.00;99.90;;;;;;5005256;28;20510;-64
2022/02/26 00:12:20;;;;;;;23.73;3.63;;;5.00;99.90;;;;;;5001842;28;20244;-64
2022/02/26 00:14:48;;;;;;;28.73;4.57;;;5.00;99.90;;;;;;5002941;28;20497;-63
2022/02/26 00:17:16;;;;;;;21.40;3.77;;;5.00;99.90;;;;;;5006619;28;20894;-64
2022/02/26 00:19:45;;;;;;;22.33;3.77;;;4.90;99.90;;;;;;5001616;28;20242;-63
2022/02/26 00:22:13;;;;;;;27.37;4.10;;;4.90;99.90;;;;;;5002772;28;20484;-63
2022/02/26 00:24:42;;;;;;;20.87;3.90;;;4.90;99.90;;;;;;4993589;28;20576;-63
2022/02/26 00:27:13;;;;;;;26.60;4.60;;;4.90;99.90;;;;;;5002294;28;20476;-63
2022/02/26 00:29:42;;;;;;;20.40;3.60;;;4.90;99.90;;;;;;5032640;28;20290;-64
2022/02/26 00:32:11;;;;;;;25.90;3.63;;;4.90;99.90;;;;;;5011795;28;20233;-64
2022/02/26 00:34:39;;;;;;;27.17;4.60;;;4.80;99.90;;;;;;5010413;28;20468;-64
2022/02/26 00:37:09;;;;;;;26.77;4.27;;;4.90;99.90;;;;;;5001903;28;20240;-63
2022/02/26 00:39:37;;;;;;;23.10;3.80;;;4.90;99.90;;;;;;5012866;28;20295;-63
2022/02/26 00:42:06;;;;;;;26.63;3.67;;;4.90;99.90;;;;;;5012720;28;20456;-63
2022/02/26 00:44:38;;;;;;;23.57;4.07;;;4.90;99.90;;;;;;5012636;28;20907;-63
2022/02/26 00:47:07;;;;;;;27.17;4.33;;;4.90;99.90;;;;;;5012119;28;20649;-64
2022/02/26 00:49:49;;;;;;;31.63;3.53;;;4.80;99.90;;;;;;5012284;28;20459;-63
2022/02/26 00:52:20;;;;;;;20.90;3.93;;;4.80;99.90;;;;;;5024264;28;20244;-63
2022/02/26 00:54:50;;;;;;;30.50;4.87;;;4.80;99.90;;;;;;5012756;28;20239;-63
2022/02/26 00:57:19;;;;;;;30.80;5.00;;;4.70;99.90;;;;;;5012382;28;20600;-64
2022/02/26 00:59:49;;;;;;;28.93;4.47;;;4.70;99.90;;;;;;5012326;28;20272;-62
2022/02/26 01:02:18;;;;;;;30.83;4.27;;;4.70;99.90;;;;;;5011208;28;20534;-63
2022/02/26 01:04:47;;;;;;;21.77;3.90;;;4.70;99.90;;;;;;5012251;28;20541;-62
2022/02/26 01:07:16;;;;;;;24.97;4.40;;;4.70;99.90;;;;;;5012263;28;20298;-63
2022/02/26 01:09:45;;;;;;;25.83;4.10;;;4.70;99.90;;;;;;5012225;28;20258;-63
2022/02/26 01:12:14;;;;;;;24.73;4.27;;;4.70;99.90;;;;;;5012167;28;20994;-63
2022/02/26 01:14:43;;;;;;;26.13;4.60;;;4.60;99.90;;;;;;5012859;28;20536;-64
2022/02/26 01:17:16;;;;;;;26.07;4.17;;;4.60;99.90;;;;;;5012620;28;20323;-64
2022/02/26 01:19:45;;;;;;;27.93;4.30;;;4.60;99.90;;;;;;5023763;28;21009;-63
2022/02/26 01:22:14;;;;;;;23.50;3.70;;;4.60;99.90;;;;;;5031510;28;20990;-63
2022/02/26 01:24:43;;;;;;;31.40;4.70;;;4.60;99.90;;;;;;5031832;28;20581;-63
2022/02/26 01:27:11;;;;;;;25.47;3.73;;;4.60;99.90;;;;;;5011734;28;20475;-63
2022/02/26 01:29:39;;;;;;;28.37;4.60;;;4.50;99.90;;;;;;5031444;28;20283;-63
2022/02/26 01:32:08;;;;;;;19.50;4.53;;;4.50;99.90;;;;;;5030627;28;20758;-63
2022/02/26 01:34:38;;;;;;;28.73;4.73;;;4.50;99.90;;;;;;5032018;28;20232;-63
2022/02/26 01:37:07;;;;;;;31.73;4.57;;;4.50;99.90;;;;;;5042053;28;20844;-64
2022/02/26 01:39:35;;;;;;;23.50;4.37;;;4.50;99.90;;;;;;5031283;28;20235;-63
2022/02/26 01:42:04;;;;;;;28.10;4.40;;;4.40;99.90;;;;;;5031210;28;20247;-63
2022/02/26 01:44:36;;;;;;;24.03;4.77;;;4.40;99.90;;;;;;5029282;28;20498;-63
2022/02/26 01:47:07;;;;;;;23.17;4.00;;;4.40;99.90;;;;;;5026186;28;20462;-64
2022/02/26 01:49:35;;;;;;;20.20;4.43;;;4.40;99.90;;;;;;5030735;28;20796;-64
2022/02/26 01:52:08;;;;;;;27.67;4.50;;;4.30;99.90;;;;;;5030729;28;20470;-63
2022/02/26 01:54:39;;;;;;;33.53;5.50;;;4.30;99.90;;;;;;5012193;28;20538;-63
2022/02/26 01:57:09;;;;;;;24.63;4.23;;;4.30;99.90;;;;;;5000353;28;20468;-64
2022/02/26 01:59:38;;;;;;;26.67;3.83;;;4.30;99.90;;;;;;5006690;28;20469;-64
2022/02/26 02:02:08;;;;;;;28.40;3.73;;;4.30;99.90;;;;;;5019164;28;20529;-63
2022/02/26 02:04:37;;;;;;;27.07;4.60;;;4.30;99.90;;;;;;5028856;28;20493;-64
2022/02/26 02:07:06;;;;;;;22.77;4.47;;;4.30;99.90;;;;;;5008599;28;20522;-64
2022/02/26 02:09:36;;;;;;;20.80;3.97;;;4.30;99.90;;;;;;5030797;28;20478;-64
2022/02/26 02:12:06;;;;;;;22.47;4.00;;;4.30;99.90;;;;;;5030752;28;20536;-64
2022/02/26 02:14:34;;;;;;;21.67;4.00;;;4.20;99.90;;;;;;5012763;28;20923;-64
2022/02/26 02:17:04;;;;;;;21.60;4.17;;;4.20;99.90;;;;;;5008206;28;20988;-64
2022/02/26 02:19:32;;;;;;;20.53;4.37;;;4.20;99.90;;;;;;5010856;28;20483;-64
2022/02/26 02:22:05;;;;;;;26.23;3.97;;;4.40;99.90;;;;;;5010641;28;20476;-64
2022/02/26 02:24:34;;;;;;;28.97;3.87;;;4.30;99.90;;;;;;5010992;28;20483;-64
2022/02/26 02:27:04;;;;;;;28.30;4.27;;;4.20;99.90;;;;;;5010853;28;20479;-64
2022/02/26 02:29:32;;;;;;;19.10;3.37;;;4.10;99.90;;;;;;5003004;28;20473;-64
2022/02/26 02:32:01;;;;;;;19.60;3.40;;;4.10;99.90;;;;;;4998486;28;20467;-64
2022/02/26 02:34:33;;;;;;;22.63;4.13;;;4.10;99.90;;;;;;5010529;28;20912;-63
2022/02/26 02:37:04;;;;;;;24.57;4.13;;;4.00;99.90;;;;;;5009956;28;20483;-64
2022/02/26 02:39:33;;;;;;;28.97;4.37;;;4.00;99.90;;;;;;5010481;28;20480;-64
2022/02/26 02:42:01;;;;;;;26.80;4.70;;;4.00;99.90;;;;;;5010245;28;20495;-63
2022/02/26 02:44:30;;;;;;;28.03;4.43;;;4.00;99.90;;;;;;5003980;28;20854;-63
2022/02/26 02:46:58;;;;;;;26.23;3.87;;;4.00;99.90;;;;;;5012669;28;20474;-64
2022/02/26 02:49:27;;;;;;;26.60;5.07;;;4.00;99.90;;;;;;4990949;28;20477;-64
2022/02/26 02:51:55;;;;;;;25.90;4.10;;;4.00;99.90;;;;;;4997771;28;20487;-64
2022/02/26 02:54:25;;;;;;;20.37;3.80;;;3.90;99.90;;;;;;5010669;28;20502;-62
2022/02/26 02:56:54;;;;;;;26.50;3.80;;;4.00;99.90;;;;;;5005141;28;20488;-63
2022/02/26 02:59:25;;;;;;;25.27;4.40;;;3.90;99.90;;;;;;4994233;28;21019;-63
2022/02/26 03:01:53;;;;;;;19.90;3.03;;;3.90;99.90;;;;;;5003989;28;20479;-64
2022/02/26 03:04:22;;;;;;;25.93;3.80;;;3.90;99.90;;;;;;5014478;28;20475;-64
2022/02/26 03:06:50;;;;;;;22.67;3.87;;;3.90;99.90;;;;;;5014169;28;20478;-63
2022/02/26 03:09:19;;;;;;;19.77;3.50;;;3.90;99.90;;;;;;5014631;28;20482;-63
2022/02/26 03:11:48;;;;;;;23.03;3.87;;;3.80;99.90;;;;;;5018062;28;20480;-63
2022/02/26 03:14:17;;;;;;;19.70;3.30;;;4.00;99.90;;;;;;5025830;28;20477;-64
2022/02/26 03:16:45;;;;;;;27.73;4.00;;;3.90;99.90;;;;;;5015359;28;20912;-64
2022/02/26 03:19:13;;;;;;;26.97;4.23;;;3.90;99.90;;;;;;5034049;28;20490;-63
2022/02/26 03:21:42;;;;;;;18.20;3.53;;;3.90;99.90;;;;;;5013696;28;20494;-64
2022/02/26 03:24:12;;;;;;;24.43;4.27;;;4.00;99.90;;;;;;5033909;28;20498;-64
2022/02/26 03:26:41;;;;;;;24.33;3.77;;;4.10;99.90;;;;;;5031888;28;20881;-64
2022/02/26 03:29:10;;;;;;;23.50;3.73;;;4.00;99.90;;;;;;5033843;28;20493;-64
2022/02/26 03:31:43;;;;;;;27.20;3.60;;;4.00;99.90;;;;;;5033036;28;20466;-64
2022/02/26 03:34:12;;;;;;;21.67;5.07;;;3.90;99.90;;;;;;5034033;28;20482;-64
2022/02/26 03:36:40;;;;;;;23.30;4.30;;;3.90;99.90;;;;;;5034246;28;20462;-64
2022/02/26 03:39:10;;;;;;;22.97;4.10;;;3.80;99.90;;;;;;5033604;28;20868;-64
2022/02/26 03:41:39;;;;;;;16.87;3.40;;;3.70;99.90;;;;;;5029404;28;20485;-64
2022/02/26 03:44:08;;;;;;;14.73;3.53;;;3.70;99.90;;;;;;5033420;28;20970;-64
2022/02/26 03:46:42;;;;;;;22.80;3.67;;;3.70;99.90;;;;;;5033305;28;20478;-64
2022/02/26 03:49:10;;;;;;;26.70;4.57;;;3.70;99.90;;;;;;5033417;28;21018;-64
2022/02/26 03:51:40;;;;;;;24.63;4.57;;;3.70;99.90;;;;;;5026255;28;20557;-64
2022/02/26 03:54:08;;;;;;;24.63;4.23;;;3.60;99.90;;;;;;5025546;28;20471;-64
2022/02/26 03:56:37;;;;;;;26.13;4.33;;;3.60;99.90;;;;;;5044141;28;20464;-64
2022/02/26 03:59:05;;;;;;;19.20;3.20;;;3.50;99.90;;;;;;5033293;28;20902;-64
2022/02/26 04:01:33;;;;;;;25.97;4.70;;;3.50;99.90;;;;;;5033159;28;20479;-64
2022/02/26 04:04:04;;;;;;;22.33;4.23;;;3.50;99.90;;;;;;5030946;28;20517;-64
2022/02/26 04:06:32;;;;;;;17.77;3.17;;;3.50;99.90;;;;;;5007108;28;20486;-64
2022/02/26 04:09:01;;;;;;;21.90;3.23;;;3.40;99.90;;;;;;5013277;28;20561;-63
2022/02/26 04:11:29;;;;;;;25.40;3.53;;;3.40;99.90;;;;;;4999649;28;20476;-64
2022/02/26 04:13:57;;;;;;;21.23;4.03;;;3.40;99.90;;;;;;5013085;28;20474;-64
2022/02/26 04:16:25;;;;;;;24.37;3.93;;;3.40;99.90;;;;;;5013241;28;20898;-64
2022/02/26 04:18:54;;;;;;;29.07;4.50;;;3.50;99.90;;;;;;5013126;28;20504;-64
2022/02/26 04:21:25;;;;;;;26.23;3.77;;;3.40;99.90;;;;;;5003717;28;20500;-64
2022/02/26 04:23:53;;;;;;;24.87;3.87;;;3.40;99.90;;;;;;5013126;28;20479;-63
2022/02/26 04:26:22;;;;;;;20.03;4.03;;;3.40;99.90;;;;;;5012921;28;20469;-64
2022/02/26 04:28:50;;;;;;;19.27;3.30;;;3.40;99.90;;;;;;5013021;28;20833;-64
2022/02/26 04:31:19;;;;;;;26.50;4.33;;;3.50;99.90;;;;;;5012955;28;20549;-64
2022/02/26 04:33:47;;;;;;;23.07;3.87;;;3.50;99.90;;;;;;5012940;28;21062;-63
2022/02/26 04:36:16;;;;;;;21.27;3.40;;;3.50;99.90;;;;;;5020066;28;20893;-64
2022/02/26 04:38:46;;;;;;;26.23;3.57;;;3.60;99.90;;;;;;5020287;28;20561;-64
2022/02/26 04:41:14;;;;;;;18.03;3.77;;;3.70;99.90;;;;;;5032598;28;20549;-64
2022/02/26 04:43:45;;;;;;;21.97;3.47;;;3.60;99.90;;;;;;5012636;28;20558;-64
2022/02/26 04:46:13;;;;;;;24.70;4.23;;;3.70;99.90;;;;;;5012874;28;20483;-64
2022/02/26 04:48:41;;;;;;;20.67;3.53;;;3.70;99.90;;;;;;5032370;28;20480;-64
2022/02/26 04:51:10;;;;;;;21.80;3.53;;;3.50;99.90;;;;;;5017779;28;20488;-64
2022/02/26 04:53:39;;;;;;;21.23;3.43;;;3.60;99.90;;;;;;5032182;28;20471;-64
2022/02/26 04:56:09;;;;;;;17.27;2.70;;;3.50;99.90;;;;;;5032703;28;20473;-64
2022/02/26 04:58:38;;;;;;;22.20;3.70;;;3.50;99.90;;;;;;5032112;28;21030;-64
2022/02/26 05:01:06;;;;;;;22.33;4.27;;;3.40;99.90;;;;;;5032311;28;20476;-64
2022/02/26 05:03:34;;;;;;;28.27;3.70;;;3.50;99.90;;;;;;5024710;28;20471;-64
2022/02/26 05:06:02;;;;;;;21.70;3.57;;;3.50;99.90;;;;;;5031989;28;20467;-64
2022/02/26 05:08:31;;;;;;;27.03;3.80;;;3.30;99.90;;;;;;5013333;28;20873;-64
2022/02/26 05:11:01;;;;;;;17.97;4.00;;;3.30;99.90;;;;;;5012363;28;20805;-64
2022/02/26 05:13:31;;;;;;;22.10;3.60;;;3.20;99.90;;;;;;5011152;28;20471;-64
2022/02/26 05:15:59;;;;;;;24.10;3.90;;;3.30;99.90;;;;;;5012103;28;20476;-64
2022/02/26 05:18:28;;;;;;;28.37;3.80;;;3.30;99.90;;;;;;5011837;28;20476;-64
2022/02/26 05:20:56;;;;;;;28.57;3.70;;;3.40;99.90;;;;;;5011477;28;21164;-64
2022/02/26 05:23:24;;;;;;;16.10;3.83;;;3.30;99.90;;;;;;5011860;28;20520;-64
2022/02/26 05:25:52;;;;;;;21.80;3.97;;;3.50;99.90;;;;;;5011966;28;20536;-64
2022/02/26 05:28:20;;;;;;;21.10;3.30;;;3.70;99.90;;;;;;5011622;28;20802;-64
2022/02/26 05:30:50;;;;;;;27.03;3.50;;;3.80;99.90;;;;;;5011759;28;20491;-64
2022/02/26 05:33:19;;;;;;;15.30;3.00;;;3.70;99.90;;;;;;5011781;28;20479;-63
2022/02/26 05:35:47;;;;;;;29.20;4.50;;;3.90;99.90;;;;;;5011267;28;20817;-64
2022/02/26 05:38:15;;;;;;;25.67;3.77;;;3.70;99.90;;;;;;5011959;28;20487;-64
2022/02/26 05:40:43;;;;;;;16.80;3.63;;;3.70;99.90;;;;;;5011619;28;20489;-63
2022/02/26 05:43:11;;;;;;;20.37;4.00;;;3.80;99.90;;;;;;5039175;28;20479;-64
2022/02/26 05:45:40;;;;;;;21.40;3.47;;;3.80;99.90;;;;;;5011348;28;21056;-64
2022/02/26 05:48:10;;;;;;;15.73;3.37;;;3.90;99.90;;;;;;5008638;28;20469;-64
2022/02/26 05:50:38;;;;;;;29.53;4.03;;;3.70;99.90;;;;;;5011338;28;20865;-64
2022/02/26 05:53:07;;;;;;;22.17;3.80;;;3.60;99.90;;;;;;5011302;28;20496;-64
2022/02/26 05:55:35;;;;;;;22.00;3.00;;;3.80;99.90;;;;;;5011959;28;20851;-63
2022/02/26 05:58:03;;;;;;;24.40;3.27;;;3.90;99.90;;;;;;5007568;28;20840;-63
2022/02/26 06:00:31;;;;;;;18.60;4.23;;;3.80;99.90;;;;;;5011246;28;20566;-63
2022/02/26 06:03:00;;;;;;;24.87;3.43;;;3.80;99.90;;;;;;5011286;28;20481;-63
2022/02/26 06:05:29;;;;;;;19.60;4.07;;;3.70;99.90;;;;;;5010805;28;20472;-64
2022/02/26 06:07:57;;;;;;;27.97;4.53;;;3.60;99.90;;;;;;5011036;28;20884;-64
2022/02/26 06:10:26;;;;;;;22.23;3.37;;;3.50;99.90;;;;;;5010313;28;20489;-64
2022/02/26 06:12:54;;;;;;;25.53;3.90;;;3.70;99.90;;;;;;5006055;28;20888;-64
2022/02/26 06:15:22;;;;;;;20.27;3.30;;;3.60;99.90;;;;;;5011228;28;20483;-64
2022/02/26 06:17:50;;;;;;;13.23;2.60;;;3.70;99.90;;;;;;5010975;28;20550;-64
2022/02/26 06:20:19;;;;;;;22.50;4.13;;;3.60;99.90;;;;;;5010755;28;20470;-64
2022/02/26 06:22:49;;;;;;;18.90;3.63;;;3.40;99.90;;;;;;5010617;28;20494;-64
2022/02/26 06:25:19;;;;;;;18.57;4.10;;;3.40;99.90;;;;;;5010370;28;20590;-64
2022/02/26 06:27:47;;;;;;;16.33;3.70;;;3.70;99.90;;;;;;5010761;28;20475;-63
2022/02/26 06:30:16;;;;;;;20.07;4.03;;;3.50;99.90;;;;;;5011279;28;20474;-64
2022/02/26 06:32:44;;;;;;;18.47;3.20;;;3.40;99.90;;;;;;5030202;28;20480;-64
2022/02/26 06:35:12;;;;;;;16.03;3.20;;;3.30;99.90;;;;;;5031531;28;20541;-64
2022/02/26 06:37:41;;;;;;;16.53;2.80;;;3.30;99.90;;;;;;5010624;28;20646;-64
2022/02/26 06:40:11;;;;;;;18.40;4.07;;;3.60;99.90;;;;;;5010518;28;20485;-64
2022/02/26 06:42:39;;;;;;;13.97;3.23;;;3.80;99.90;;;;;;5029801;28;21063;-64
2022/02/26 06:45:08;;;;;;;17.27;3.53;;;4.00;99.90;;;;;;5010814;28;20495;-64
2022/02/26 06:47:37;;;;;;;15.07;3.93;;;4.20;99.90;;;;;;5010340;28;20466;-64
2022/02/26 06:50:06;;;;;;;23.93;3.90;;;4.10;99.90;;;;;;5010821;28;20519;-64
2022/02/26 06:52:34;;;;;;;25.10;3.80;;;4.40;99.90;;;;;;5010331;28;20478;-64
2022/02/26 06:55:03;;;;;;;22.23;3.77;;;4.30;99.90;;;;;;5010867;28;20507;-64
2022/02/26 06:57:44;;;;;;;14.87;3.10;;;4.40;99.90;;;;;;5010449;28;20472;-64
2022/02/26 07:00:14;;;;;;;19.73;3.27;;;4.20;99.90;;;;;;5009683;28;20484;-64
2022/02/26 07:02:42;;;;;;;15.60;3.70;;;4.10;99.90;;;;;;5003262;28;20504;-63
2022/02/26 07:05:11;;;;;;;13.80;3.40;;;4.10;99.90;;;;;;5027314;28;20902;-64
2022/02/26 07:07:39;;;;;;;23.53;3.93;;;4.30;99.90;;;;;;5010227;28;20458;-63
2022/02/26 07:10:08;;;;;;;27.90;5.00;;;4.60;99.90;;;;;;5009798;28;20486;-64
2022/02/26 07:12:37;;;;;;;14.50;3.10;;;4.60;99.90;;;;;;5021318;28;20982;-63
2022/02/26 07:15:08;;;;;;;19.07;3.17;;;4.50;99.90;;;;;;5021926;28;20479;-63
2022/02/26 07:17:39;;;;;;;11.30;2.90;;;4.60;99.90;;;;;;5011289;28;20948;-64
2022/02/26 07:20:09;;;;;;;16.90;3.37;;;4.80;99.90;;;;;;5026175;28;20480;-63
2022/02/26 07:22:37;;;;;;;18.00;3.10;;;5.10;99.90;;;;;;5023974;28;20468;-64
2022/02/26 07:25:07;;;;;;;19.17;3.60;;;5.10;99.90;;;;;;5010242;28;20475;-63
2022/02/26 07:27:35;;;;;;;21.57;3.90;;;5.20;99.90;;;;;;5018869;28;21064;-64
2022/02/26 07:30:05;;;;;;;18.17;3.60;;;5.20;99.90;;;;;;5025357;28;20479;-63
2022/02/26 07:32:35;;;;;;;21.20;4.03;;;5.30;99.90;;;;;;5019017;28;20484;-62
2022/02/26 07:35:04;;;;;;;23.87;4.70;;;5.00;99.90;;;;;;5019546;28;20482;-64
2022/02/26 07:37:32;;;;;;;14.17;3.90;;;4.80;99.90;;;;;;5018756;28;20519;-63
2022/02/26 07:40:01;;;;;;;15.87;4.00;;;5.10;99.90;;;;;;5003663;28;20878;-64
2022/02/26 07:42:29;;;;;;;22.50;3.83;;;5.00;99.90;;;;;;5009704;28;20481;-64
2022/02/26 07:44:57;;;;;;;22.20;3.80;;;5.20;99.90;;;;;;5012514;28;20521;-64
2022/02/26 07:47:26;;;;;;;18.13;3.97;;;5.20;99.90;;;;;;5021665;28;20473;-63
2022/02/26 07:49:55;;;;;;;16.50;3.27;;;5.20;99.90;;;;;;5027596;28;20486;-63
2022/02/26 07:52:31;;;;;;;19.13;3.40;;;5.10;99.90;;;;;;5029999;28;20323;-63
2022/02/26 07:55:00;;;;;;;21.47;3.67;;;5.20;99.90;;;;;;5012197;28;20526;-63
2022/02/26 07:57:29;;;;;;;19.00;3.50;;;5.30;99.90;;;;;;5010018;28;20244;-63
2022/02/26 07:59:57;;;;;;;22.27;4.30;;;5.30;99.90;;;;;;5031038;28;20546;-63
2022/02/26 08:02:26;;;;;;;18.47;3.53;;;5.20;99.90;;;;;;5045999;28;20875;-63
2022/02/26 08:04:56;;;;;;;20.53;3.80;;;5.30;99.90;;;;;;5030431;28;20494;-63
2022/02/26 08:07:24;;;;;;;24.03;4.17;;;5.40;99.90;;;;;;5026259;28;20494;-63
2022/02/26 08:09:53;;;;;;;21.43;3.27;;;5.50;99.90;;;;;;5023590;28;20479;-63
2022/02/26 08:12:21;;;;;;;23.23;4.87;;;5.50;99.90;;;;;;5032527;28;20720;-62
2022/02/26 08:14:49;;;;;;;25.00;4.43;;;5.60;99.90;;;;;;5025010;28;20485;-63
2022/02/26 08:17:17;;;;;;;21.50;4.10;;;5.60;99.90;;;;;;5024571;28;20555;-63
2022/02/26 08:19:46;;;;;;;23.73;4.40;;;5.60;99.90;;;;;;5027383;28;20481;-62
2022/02/26 08:22:15;;;;;;;24.73;4.27;;;5.80;99.90;;;;;;5023325;28;20888;-63
2022/02/26 08:24:43;;;;;;;23.43;4.53;;;5.90;99.90;;;;;;5012018;28;20260;-63
2022/02/26 08:27:12;;;;;;;26.23;4.23;;;5.90;99.90;;;;;;5014100;28;20242;-63
2022/02/26 08:29:41;;;;;;;24.63;4.73;;;6.10;99.90;;;;;;4998876;28;20554;-63
2022/02/26 08:32:10;;;;;;;21.47;3.63;;;6.20;99.90;;;;;;4999056;28;20240;-63
2022/02/26 08:34:38;;;;;;;21.93;4.07;;;6.30;99.90;;;;;;5003947;28;20611;-63
2022/02/26 08:37:06;;;;;;;27.00;4.60;;;6.50;99.90;;;;;;4998301;28;20244;-63
2022/02/26 08:39:37;;;;;;;23.73;4.67;;;6.70;99.90;;;;;;5022580;28;20330;-61
2022/02/26 08:42:07;;;;;;;24.93;4.03;;;6.70;99.90;;;;;;5028935;28;20248;-62
2022/02/26 08:44:36;;;;;;;20.37;3.93;;;6.70;99.90;;;;;;5043509;28;20224;-63
2022/02/26 08:47:05;;;;;;;21.50;4.03;;;6.70;99.90;;;;;;5044476;28;20479;-62
2022/02/26 08:49:33;;;;;;;15.63;3.30;;;6.80;99.90;;;;;;5032508;28;20246;-63
2022/02/26 08:52:04;;;;;;;18.87;3.63;;;7.00;99.90;;;;;;5032401;28;20506;-63
2022/02/26 08:54:32;;;;;;;17.70;3.60;;;7.00;99.90;;;;;;5032266;28;20232;-63
2022/02/26 08:57:02;;;;;;;20.57;3.70;;;7.00;99.90;;;;;;5043460;28;20238;-63
2022/02/26 08:59:31;;;;;;;22.73;3.73;;;7.10;99.90;;;;;;5033131;28;20266;-62
2022/02/26 09:02:01;;;;;;;16.53;3.40;;;7.20;99.90;;;;;;5028808;28;20321;-63
2022/02/26 09:04:29;;;;;;;21.53;3.83;;;7.30;99.90;;;;;;5029249;28;20260;-62
2022/02/26 09:06:57;;;;;;;21.33;4.10;;;7.40;99.90;;;;;;5032188;28;20244;-63
2022/02/26 09:09:26;;;;;;;22.70;3.40;;;7.40;99.90;;;;;;5032135;28;20236;-62
2022/02/26 09:11:54;;;;;;;21.13;3.67;;;7.50;99.90;;;;;;5038843;28;20228;-62
2022/02/26 09:14:25;;;;;;;17.70;3.47;;;7.70;99.90;;;;;;5023013;28;20712;-62
2022/02/26 09:16:53;;;;;;;16.63;3.30;;;7.70;99.90;;;;;;5031729;28;20252;-62
2022/02/26 09:19:21;;;;;;;20.93;3.83;;;7.70;99.90;;;;;;5020430;28;20240;-63
2022/02/26 09:21:50;;;;;;;22.80;4.13;;;7.90;99.90;;;;;;5023539;28;20240;-63
2022/02/26 09:24:18;;;;;;;15.43;3.57;;;8.00;99.90;;;;;;5020909;28;20641;-62
2022/02/26 09:26:46;;;;;;;19.93;4.17;;;8.10;99.90;;;;;;5039044;28;21635;-62
2022/02/26 09:29:15;;;;;;;20.83;3.23;;;8.20;99.90;;;;;;5013416;28;20283;-63
2022/02/26 09:31:48;;;;;;;15.10;3.00;;;8.30;99.90;;;;;;5011693;28;20245;-63
2022/02/26 09:34:23;;;;;;;20.83;3.97;;;8.40;99.90;;;;;;5011656;28;20239;-63
2022/02/26 09:36:53;;;;;;;16.60;3.60;;;8.40;99.90;;;;;;5031681;28;20324;-63
2022/02/26 09:39:22;;;;;;;23.50;3.63;;;8.50;99.90;;;;;;5031575;28;20232;-62
2022/02/26 09:41:51;;;;;;;15.67;2.80;;;8.70;99.90;;;;;;5031368;28;20240;-63
2022/02/26 09:44:20;;;;;;;20.27;3.63;;;8.80;99.90;;;;;;5027542;28;20233;-63
2022/02/26 09:46:51;;;;;;;18.73;4.13;;;8.80;99.90;;;;;;5024997;28;20313;-62
2022/02/26 09:49:20;;;;;;;9.23;2.57;;;9.00;99.90;;;;;;5006851;28;20236;-62
2022/02/26 09:51:49;;;;;;;16.77;3.87;;;9.10;99.90;;;;;;5005700;28;20726;-62
2022/02/26 09:54:18;;;;;;;17.53;3.73;;;9.20;99.90;;;;;;5010245;28;20237;-63
2022/02/26 09:56:46;;;;;;;15.70;2.80;;;9.10;99.90;;;;;;5006537;28;20245;-62
2022/02/26 09:59:14;;;;;;;16.47;3.57;;;9.10;99.90;;;;;;4996201;28;20253;-63
2022/02/26 10:01:58;;;;;;;13.40;2.80;;;9.20;99.90;;;;;;5025717;28;20240;-63
2022/02/26 10:04:28;;;;;;;21.67;3.30;;;9.40;99.90;;;;;;5030941;28;20243;-62
2022/02/26 10:07:12;;;;;;;16.00;2.97;;;9.50;99.90;;;;;;5013096;28;20724;-63
2022/02/26 10:09:42;;;;;;;12.23;2.50;;;9.40;99.90;;;;;;5006035;28;20232;-62
2022/02/26 10:12:23;;;;;;;14.27;3.00;;;9.40;99.90;;;;;;5011193;28;20240;-62
2022/02/26 10:14:53;;;;;;;15.83;2.33;;;9.30;99.90;;;;;;5035918;28;20235;-62
2022/02/26 10:17:28;;;;;;;13.17;2.70;;;9.20;99.90;;;;;;5030441;28;20635;-62
2022/02/26 10:20:08;;;;;;;14.53;3.80;;;9.40;99.90;;;;;;5030413;28;20606;-63
2022/02/26 10:22:39;;;;;;;13.03;2.90;;;9.70;99.90;;;;;;5028414;28;20243;-63
2022/02/26 10:25:10;;;;;;;18.33;3.40;;;9.90;99.90;;;;;;5022315;28;20257;-63
2022/02/26 10:27:40;;;;;;;14.93;3.57;;;10.10;99.90;;;;;;5023223;28;20582;-63
2022/02/26 10:30:10;;;;;;;14.93;3.17;;;10.60;99.90;;;;;;5014027;28;20234;-63
2022/02/26 10:32:41;;;;;;;13.03;2.53;;;10.60;99.90;;;;;;5023407;28;20238;-63
2022/02/26 10:35:11;;;;;;;12.57;2.63;;;11.00;99.90;;;;;;5010441;28;20247;-62
2022/02/26 10:37:39;;;;;;;11.70;2.87;;;11.00;99.90;;;;;;5045502;28;20232;-63
2022/02/26 10:40:09;;;;;;;16.50;3.20;;;11.20;99.90;;;;;;5018492;28;20699;-63
2022/02/26 10:42:39;;;;;;;19.07;3.33;;;11.40;99.90;;;;;;5006968;28;20336;-63
2022/02/26 10:45:10;;;;;;;17.30;3.93;;;11.60;99.90;;;;;;5001610;28;20242;-63
2022/02/26 10:47:42;;;;;;;14.93;3.00;;;11.80;99.90;;;;;;5001719;28;20231;-62
2022/02/26 10:50:19;;;;;;;14.93;3.50;;;11.90;99.90;;;;;;5003597;28;20728;-62
2022/02/26 10:52:55;;;;;;;12.40;2.80;;;11.60;99.90;;;;;;5024816;28;20253;-63
2022/02/26 10:55:24;;;;;;;15.70;2.97;;;11.50;99.90;;;;;;5026252;28;20245;-63
2022/02/26 10:57:58;;;;;;;12.53;2.70;;;11.60;99.90;;;;;;5009248;28;20612;-63
2022/02/26 11:00:27;;;;;;;11.50;2.93;;;11.80;99.90;;;;;;5005854;28;20617;-63
2022/02/26 11:03:18;;;;;;;13.23;2.70;;;12.00;99.90;;;;;;5006129;28;20592;-63
2022/02/26 11:05:46;;;;;;;8.67;2.33;;;12.20;99.90;;;;;;5020290;28;20622;-61
2022/02/26 11:08:16;;;;;;;11.57;2.40;;;11.90;99.90;;;;;;5025941;28;20764;-63
2022/02/26 11:10:45;;;;;;;14.53;3.27;;;12.00;99.90;;;;;;5026302;28;20701;-63
2022/02/26 11:13:14;;;;;;;16.77;3.17;;;11.90;99.90;;;;;;5026111;28;20590;-63
2022/02/26 11:15:43;;;;;;;11.67;2.57;;;12.10;99.90;;;;;;5024337;28;20273;-63
2022/02/26 11:18:15;;;;;;;12.47;2.37;;;12.30;99.90;;;;;;5025587;28;20237;-63
2022/02/26 11:20:46;;;;;;;11.37;2.30;;;12.30;99.90;;;;;;5028855;28;20250;-63
2022/02/26 11:23:14;;;;;;;10.07;2.23;;;12.40;99.90;;;;;;5029258;28;20745;-63
2022/02/26 11:25:46;;;;;;;12.97;2.97;;;12.20;99.90;;;;;;5028400;28;20262;-63
2022/02/26 11:28:17;;;;;;;11.20;2.10;;;12.00;99.90;;;;;;5029968;28;20262;-63
2022/02/26 11:30:53;;;;;;;10.33;2.40;;;11.60;99.90;;;;;;5028828;28;20251;-63
2022/02/26 11:33:22;;;;;;;10.60;2.07;;;11.60;99.90;;;;;;5029606;28;20308;-63
2022/02/26 11:35:53;;;;;;;10.07;2.00;;;11.90;99.90;;;;;;5028373;28;20619;-63
2022/02/26 11:38:23;;;;;;;8.67;1.83;;;11.90;99.90;;;;;;5029535;28;20711;-62
2022/02/26 11:41:20;;;;;;;12.07;2.17;;;12.10;99.90;;;;;;5029073;28;20272;-63
2022/02/26 11:43:51;;;;;;;4.53;1.60;;;12.40;99.90;;;;;;5028533;28;20802;-63
2022/02/26 11:46:26;;;;;;;6.03;1.63;;;12.70;99.90;;;;;;5027568;28;20251;-62
2022/02/26 11:48:55;;;;;;;8.20;2.03;;;12.60;99.90;;;;;;5028942;28;20235;-63
2022/02/26 11:51:37;;;;;;;10.77;2.83;;;12.50;99.90;;;;;;5028649;28;20238;-63
2022/02/26 11:54:06;;;;;;;8.37;1.80;;;12.40;99.90;;;;;;5028863;28;20240;-62
2022/02/26 11:56:46;;;;;;;7.40;1.87;;;12.40;99.90;;;;;;5027344;28;20588;-62
2022/02/26 11:59:14;;;;;;;8.00;2.27;;;12.70;99.90;;;;;;5028848;28;20259;-63
2022/02/26 12:02:05;;;;;;;8.93;1.73;;;12.90;99.90;;;;;;5027906;28;20752;-63
2022/02/26 12:04:44;;;;;;;9.27;1.83;;;12.80;99.90;;;;;;5028287;28;20585;-62
2022/02/26 12:07:29;;;;;;;6.53;1.60;;;12.60;99.90;;;;;;5027120;28;20235;-62
2022/02/26 12:09:58;;;;;;;6.80;1.63;;;12.40;99.90;;;;;;5028153;28;20235;-63
2022/02/26 12:12:39;;;;;;;8.07;1.73;;;12.30;99.90;;;;;;5027819;28;20641;-60
2022/02/26 12:15:15;;;;;;;5.23;1.80;;;12.10;99.90;;;;;;5028600;28;20691;-63
2022/02/26 12:17:45;;;;;;;4.23;1.40;;;11.70;99.90;;;;;;5027409;28;21143;-63
2022/02/26 12:20:19;;;;;;;7.30;1.60;;;11.70;99.90;;;;;;5028404;28;20262;-62
2022/02/26 12:22:50;;;;;;;7.93;1.70;;;11.60;99.90;;;;;;5027798;28;20304;-63
2022/02/26 12:25:19;;;;;;;7.97;1.60;;;11.50;99.90;;;;;;5027716;28;20292;-61
2022/02/26 12:27:59;;;;;;;8.37;1.70;;;11.70;99.90;;;;;;5027389;28;20250;-62
2022/02/26 12:30:30;;;;;;;9.63;1.87;;;11.80;99.90;;;;;;5027822;28;20322;-62
2022/02/26 12:33:02;;;;;;;5.90;1.70;;;11.50;99.90;;;;;;5028536;28;20926;-62
2022/02/26 12:35:35;;;;;;;4.87;1.40;;;11.20;99.90;;;;;;5026986;28;20253;-62
2022/02/26 12:38:21;;;;;;;6.30;1.30;;;11.00;99.90;;;;;;5027148;28;20261;-63
2022/02/26 12:40:49;;;;;;;7.47;1.83;;;11.20;99.90;;;;;;5027895;28;20349;-63
2022/02/26 12:43:17;;;;;;;5.73;1.63;;;11.50;99.90;;;;;;5028181;28;20586;-62
2022/02/26 12:45:47;;;;;;;6.17;1.63;;;11.50;99.90;;;;;;5025134;28;20258;-63
2022/02/26 12:48:16;;;;;;;5.00;1.90;;;11.20;99.90;;;;;;5027927;28;20308;-63
2022/02/26 12:50:44;;;;;;;6.50;1.87;;;11.30;99.90;;;;;;5027919;28;20326;-63
2022/02/26 12:53:14;;;;;;;8.37;1.57;;;10.80;99.90;;;;;;5027686;28;20233;-63
2022/02/26 12:55:42;;;;;;;5.90;1.60;;;10.80;99.90;;;;;;5026606;28;20289;-63
2022/02/26 12:58:10;;;;;;;6.90;1.40;;;10.70;99.90;;;;;;5027417;28;20289;-63
2022/02/26 13:00:39;;;;;;;7.33;1.70;;;10.50;99.90;;;;;;5027122;28;20233;-63